sensor_id;sensor_type;location;lat;lon;timestamp;pressure;altitude;pressure_sealevel;temperature;humidity
17311;BME280;8773;43.300;0.394;2023-10-13T00:01:37;99778.34;;;16.94;60.54
17311;BME280;8773;43.300;0.394;2023-10-13T00:04:05;99785.44;;;17.02;60.44
17311;BME280;8773;43.300;0.394;2023-10-13T00:06:33;99773.28;;;17.13;60.05
17311;BME280;8773;43.300;0.394;2023-10-13T00:09:00;99780.50;;;17.06;60.64
17311;BME280;8773;43.300;0.394;2023-10-13T00:11:27;99778.19;;;17.02;60.19
17311;BME280;8773;43.300;0.394;2023-10-13T00:13:55;99780.03;;;16.74;60.84
17311;BME280;8773;43.300;0.394;2023-10-13T00:16:22;99777.34;;;17.02;60.33
17311;BME280;8773;43.300;0.394;2023-10-13T00:18:51;99774.59;;;16.95;60.43
17311;BME280;8773;43.300;0.394;2023-10-13T00:21:19;99776.56;;;16.80;60.51
17311;BME280;8773;43.300;0.394;2023-10-13T00:23:46;99772.88;;;16.88;60.35
17311;BME280;8773;43.300;0.394;2023-10-13T00:26:14;99774.16;;;16.92;60.40
17311;BME280;8773;43.300;0.394;2023-10-13T00:28:41;99778.38;;;17.01;59.89
17311;BME280;8773;43.300;0.394;2023-10-13T00:31:08;99775.88;;;16.99;60.04
17311;BME280;8773;43.300;0.394;2023-10-13T00:33:36;99775.50;;;17.02;59.81
17311;BME280;8773;43.300;0.394;2023-10-13T00:36:05;99773.78;;;16.95;60.20
17311;BME280;8773;43.300;0.394;2023-10-13T00:38:33;99777.81;;;17.06;59.93
17311;BME280;8773;43.300;0.394;2023-10-13T00:41:00;99778.38;;;17.01;60.28
17311;BME280;8773;43.300;0.394;2023-10-13T00:43:28;99774.69;;;16.81;60.19
17311;BME280;8773;43.300;0.394;2023-10-13T00:45:57;99773.31;;;16.91;60.39
17311;BME280;8773;43.300;0.394;2023-10-13T00:48:27;99765.00;;;16.86;60.20
17311;BME280;8773;43.300;0.394;2023-10-13T00:50:56;99763.56;;;16.90;60.34
17311;BME280;8773;43.300;0.394;2023-10-13T00:53:26;99762.78;;;16.96;60.18
17311;BME280;8773;43.300;0.394;2023-10-13T00:55:53;99762.59;;;16.98;60.17
17311;BME280;8773;43.300;0.394;2023-10-13T00:58:21;99759.66;;;16.93;60.53
17311;BME280;8773;43.300;0.394;2023-10-13T01:00:49;99754.50;;;16.70;61.44
17311;BME280;8773;43.300;0.394;2023-10-13T01:03:17;99759.34;;;16.81;61.17
17311;BME280;8773;43.300;0.394;2023-10-13T01:05:44;99759.16;;;16.83;60.63
17311;BME280;8773;43.300;0.394;2023-10-13T01:08:12;99761.84;;;16.83;61.27
17311;BME280;8773;43.300;0.394;2023-10-13T01:10:41;99759.34;;;16.81;60.75
17311;BME280;8773;43.300;0.394;2023-10-13T01:13:09;99749.28;;;16.68;61.22
17311;BME280;8773;43.300;0.394;2023-10-13T01:15:36;99742.09;;;16.76;60.68
17311;BME280;8773;43.300;0.394;2023-10-13T01:18:06;99739.84;;;16.58;61.18
17311;BME280;8773;43.300;0.394;2023-10-13T01:20:34;99733.94;;;16.69;60.95
17311;BME280;8773;43.300;0.394;2023-10-13T01:23:09;99734.72;;;16.63;60.63
17311;BME280;8773;43.300;0.394;2023-10-13T01:25:36;99728.56;;;16.48;61.57
17311;BME280;8773;43.300;0.394;2023-10-13T01:28:04;99726.44;;;16.43;61.43
17311;BME280;8773;43.300;0.394;2023-10-13T01:30:31;99719.66;;;16.47;61.84
17311;BME280;8773;43.300;0.394;2023-10-13T01:32:59;99699.94;;;16.47;61.03
17311;BME280;8773;43.300;0.394;2023-10-13T01:35:26;99709.56;;;16.56;61.22
17311;BME280;8773;43.300;0.394;2023-10-13T01:37:54;99708.28;;;16.52;60.77
17311;BME280;8773;43.300;0.394;2023-10-13T01:40:22;99703.66;;;16.46;61.09
17311;BME280;8773;43.300;0.394;2023-10-13T01:42:50;99697.88;;;16.21;61.69
17311;BME280;8773;43.300;0.394;2023-10-13T01:45:17;99686.31;;;16.27;61.92
17311;BME280;8773;43.300;0.394;2023-10-13T01:47:44;99691.25;;;16.23;61.89
17311;BME280;8773;43.300;0.394;2023-10-13T01:50:14;99691.34;;;16.36;61.11
17311;BME280;8773;43.300;0.394;2023-10-13T01:52:41;99686.53;;;16.25;61.66
17311;BME280;8773;43.300;0.394;2023-10-13T01:55:09;99681.91;;;16.19;61.78
17311;BME280;8773;43.300;0.394;2023-10-13T01:57:37;99681.19;;;16.11;62.38
17311;BME280;8773;43.300;0.394;2023-10-13T02:00:06;99672.84;;;16.27;61.64
17311;BME280;8773;43.300;0.394;2023-10-13T02:02:33;99671.13;;;16.19;62.23
17311;BME280;8773;43.300;0.394;2023-10-13T02:05:01;99670.28;;;16.19;61.62
17311;BME280;8773;43.300;0.394;2023-10-13T02:07:29;99669.06;;;16.21;61.52
17311;BME280;8773;43.300;0.394;2023-10-13T02:09:56;99665.63;;;16.34;61.45
17311;BME280;8773;43.300;0.394;2023-10-13T02:12:23;99657.53;;;16.27;61.66
17311;BME280;8773;43.300;0.394;2023-10-13T02:14:52;99654.81;;;16.27;61.70
17311;BME280;8773;43.300;0.394;2023-10-13T02:17:19;99649.03;;;16.30;61.66
17311;BME280;8773;43.300;0.394;2023-10-13T02:19:47;99658.34;;;16.28;62.33
17311;BME280;8773;43.300;0.394;2023-10-13T02:22:15;99654.97;;;16.19;62.64
17311;BME280;8773;43.300;0.394;2023-10-13T02:24:43;99652.47;;;16.18;61.77
17311;BME280;8773;43.300;0.394;2023-10-13T02:27:10;99653.69;;;16.15;62.38
17311;BME280;8773;43.300;0.394;2023-10-13T02:29:37;99641.63;;;15.90;63.24
17311;BME280;8773;43.300;0.394;2023-10-13T02:32:06;99650.28;;;15.49;64.02
17311;BME280;8773;43.300;0.394;2023-10-13T02:34:34;99647.47;;;15.57;63.98
17311;BME280;8773;43.300;0.394;2023-10-13T02:37:01;99640.84;;;15.75;63.98
17311;BME280;8773;43.300;0.394;2023-10-13T02:39:28;99639.72;;;15.84;62.83
17311;BME280;8773;43.300;0.394;2023-10-13T02:41:56;99637.59;;;16.00;62.52
17311;BME280;8773;43.300;0.394;2023-10-13T02:44:23;99626.63;;;16.02;62.33
17311;BME280;8773;43.300;0.394;2023-10-13T02:46:51;99632.31;;;16.14;62.28
17311;BME280;8773;43.300;0.394;2023-10-13T02:49:19;99630.91;;;16.18;61.94
17311;BME280;8773;43.300;0.394;2023-10-13T02:51:47;99622.63;;;16.19;62.13
17311;BME280;8773;43.300;0.394;2023-10-13T02:54:14;99623.03;;;16.16;62.47
17311;BME280;8773;43.300;0.394;2023-10-13T02:56:42;99625.06;;;16.14;62.31
17311;BME280;8773;43.300;0.394;2023-10-13T02:59:09;99623.47;;;15.98;62.78
17311;BME280;8773;43.300;0.394;2023-10-13T03:01:36;99621.03;;;16.03;62.14
17311;BME280;8773;43.300;0.394;2023-10-13T03:04:04;99624.25;;;16.14;61.61
17311;BME280;8773;43.300;0.394;2023-10-13T03:06:33;99621.31;;;16.09;62.26
17311;BME280;8773;43.300;0.394;2023-10-13T03:09:02;99616.50;;;16.04;62.53
17311;BME280;8773;43.300;0.394;2023-10-13T03:11:30;99616.63;;;15.96;62.75
17311;BME280;8773;43.300;0.394;2023-10-13T03:13:57;99613.66;;;15.91;62.65
17311;BME280;8773;43.300;0.394;2023-10-13T03:16:24;99611.88;;;15.98;63.03
17311;BME280;8773;43.300;0.394;2023-10-13T03:18:52;99613.09;;;15.95;62.56
17311;BME280;8773;43.300;0.394;2023-10-13T03:21:23;99614.06;;;15.88;62.77
17311;BME280;8773;43.300;0.394;2023-10-13T03:23:52;99594.16;;;15.82;63.00
17311;BME280;8773;43.300;0.394;2023-10-13T03:26:19;99601.41;;;15.82;62.86
17311;BME280;8773;43.300;0.394;2023-10-13T03:28:47;99609.94;;;15.92;62.45
17311;BME280;8773;43.300;0.394;2023-10-13T03:31:14;99598.72;;;15.88;62.75
17311;BME280;8773;43.300;0.394;2023-10-13T03:33:41;99599.81;;;15.72;62.84
17311;BME280;8773;43.300;0.394;2023-10-13T03:36:09;99596.41;;;15.79;62.77
17311;BME280;8773;43.300;0.394;2023-10-13T03:38:36;99599.81;;;15.72;62.71
17311;BME280;8773;43.300;0.394;2023-10-13T03:41:05;99600.72;;;15.58;63.40
17311;BME280;8773;43.300;0.394;2023-10-13T03:43:33;99588.34;;;15.43;63.94
17311;BME280;8773;43.300;0.394;2023-10-13T03:46:00;99590.63;;;15.46;64.56
17311;BME280;8773;43.300;0.394;2023-10-13T03:48:28;99592.06;;;15.63;63.48
17311;BME280;8773;43.300;0.394;2023-10-13T03:51:00;99583.16;;;15.62;63.00
17311;BME280;8773;43.300;0.394;2023-10-13T03:53:27;99585.47;;;15.65;62.54
17311;BME280;8773;43.300;0.394;2023-10-13T03:55:55;99580.47;;;15.62;62.58
17311;BME280;8773;43.300;0.394;2023-10-13T03:58:23;99581.72;;;15.45;63.62
17311;BME280;8773;43.300;0.394;2023-10-13T04:00:51;99578.91;;;15.53;63.33
17311;BME280;8773;43.300;0.394;2023-10-13T04:03:18;99577.81;;;15.48;63.36
17311;BME280;8773;43.300;0.394;2023-10-13T04:05:45;99576.75;;;15.63;62.47
17311;BME280;8773;43.300;0.394;2023-10-13T04:08:13;99581.47;;;15.61;63.04
17311;BME280;8773;43.300;0.394;2023-10-13T04:10:40;99579.06;;;15.66;62.76
17311;BME280;8773;43.300;0.394;2023-10-13T04:13:07;99564.56;;;15.67;61.95
17311;BME280;8773;43.300;0.394;2023-10-13T04:15:36;99567.91;;;15.69;62.65
17311;BME280;8773;43.300;0.394;2023-10-13T04:18:04;99567.91;;;15.69;62.19
17311;BME280;8773;43.300;0.394;2023-10-13T04:20:31;99572.25;;;15.70;62.23
17311;BME280;8773;43.300;0.394;2023-10-13T04:22:58;99568.84;;;15.77;61.89
17311;BME280;8773;43.300;0.394;2023-10-13T04:25:27;99570.84;;;15.75;61.88
17311;BME280;8773;43.300;0.394;2023-10-13T04:27:54;99570.75;;;15.83;62.23
17311;BME280;8773;43.300;0.394;2023-10-13T04:30:22;99565.66;;;15.73;62.20
17311;BME280;8773;43.300;0.394;2023-10-13T04:32:50;99570.56;;;15.84;61.65
17311;BME280;8773;43.300;0.394;2023-10-13T04:35:18;99565.41;;;15.68;62.61
17311;BME280;8773;43.300;0.394;2023-10-13T04:37:45;99571.03;;;15.73;62.51
17311;BME280;8773;43.300;0.394;2023-10-13T04:40:13;99578.75;;;15.76;61.67
17311;BME280;8773;43.300;0.394;2023-10-13T04:42:40;99569.44;;;15.57;62.53
17311;BME280;8773;43.300;0.394;2023-10-13T04:45:10;99569.38;;;15.72;62.23
17311;BME280;8773;43.300;0.394;2023-10-13T04:47:37;99574.44;;;15.60;61.36
17311;BME280;8773;43.300;0.394;2023-10-13T04:50:07;99569.13;;;15.67;61.68
17311;BME280;8773;43.300;0.394;2023-10-13T04:52:34;99573.09;;;15.71;62.20
17311;BME280;8773;43.300;0.394;2023-10-13T04:55:02;99574.56;;;15.73;61.80
17311;BME280;8773;43.300;0.394;2023-10-13T04:57:29;99569.50;;;15.64;61.71
17311;BME280;8773;43.300;0.394;2023-10-13T04:59:56;99576.56;;;15.65;61.73
17311;BME280;8773;43.300;0.394;2023-10-13T05:02:24;99575.06;;;15.62;61.79
17311;BME280;8773;43.300;0.394;2023-10-13T05:04:52;99578.41;;;15.64;62.06
17311;BME280;8773;43.300;0.394;2023-10-13T05:07:20;99573.53;;;15.53;62.12
17311;BME280;8773;43.300;0.394;2023-10-13T05:09:48;99564.63;;;15.53;62.22
17311;BME280;8773;43.300;0.394;2023-10-13T05:12:15;99565.66;;;15.52;62.23
17311;BME280;8773;43.300;0.394;2023-10-13T05:14:42;99568.41;;;15.58;61.60
17311;BME280;8773;43.300;0.394;2023-10-13T05:17:10;99575.59;;;15.51;61.91
17311;BME280;8773;43.300;0.394;2023-10-13T05:19:37;99564.06;;;15.57;61.59
17311;BME280;8773;43.300;0.394;2023-10-13T05:22:05;99560.06;;;15.53;61.87
17311;BME280;8773;43.300;0.394;2023-10-13T05:24:34;99566.09;;;15.55;61.64
17311;BME280;8773;43.300;0.394;2023-10-13T05:27:01;99564.44;;;15.54;61.67
17311;BME280;8773;43.300;0.394;2023-10-13T05:29:29;99569.88;;;15.61;61.71
17311;BME280;8773;43.300;0.394;2023-10-13T05:31:56;99571.47;;;15.55;61.89
17311;BME280;8773;43.300;0.394;2023-10-13T05:34:24;99561.75;;;15.54;61.85
17311;BME280;8773;43.300;0.394;2023-10-13T05:36:51;99565.28;;;15.55;61.53
17311;BME280;8773;43.300;0.394;2023-10-13T05:39:19;99560.91;;;15.54;62.57
17311;BME280;8773;43.300;0.394;2023-10-13T05:41:48;99558.03;;;15.55;61.54
17311;BME280;8773;43.300;0.394;2023-10-13T05:44:15;99560.34;;;15.58;61.56
17311;BME280;8773;43.300;0.394;2023-10-13T05:46:42;99575.00;;;15.56;61.79
17311;BME280;8773;43.300;0.394;2023-10-13T05:49:10;99577.25;;;15.52;61.35
17311;BME280;8773;43.300;0.394;2023-10-13T05:51:38;99570.19;;;15.51;61.69
17311;BME280;8773;43.300;0.394;2023-10-13T05:54:05;99564.06;;;15.36;61.64
17311;BME280;8773;43.300;0.394;2023-10-13T05:56:33;99564.31;;;15.41;61.71
17311;BME280;8773;43.300;0.394;2023-10-13T05:59:01;99558.75;;;15.43;62.72
17311;BME280;8773;43.300;0.394;2023-10-13T06:01:29;99561.75;;;15.33;62.07
17311;BME280;8773;43.300;0.394;2023-10-13T06:03:56;99558.03;;;15.55;61.30
17311;BME280;8773;43.300;0.394;2023-10-13T06:06:24;99560.72;;;15.34;62.39
17311;BME280;8773;43.300;0.394;2023-10-13T06:08:51;99559.72;;;15.35;62.21
17311;BME280;8773;43.300;0.394;2023-10-13T06:11:19;99563.22;;;15.35;62.05
17311;BME280;8773;43.300;0.394;2023-10-13T06:13:47;99560.34;;;15.37;62.06
17311;BME280;8773;43.300;0.394;2023-10-13T06:16:17;99563.03;;;15.37;62.41
17311;BME280;8773;43.300;0.394;2023-10-13T06:18:44;99559.97;;;15.40;62.10
17311;BME280;8773;43.300;0.394;2023-10-13T06:21:12;99554.31;;;15.35;62.14
17311;BME280;8773;43.300;0.394;2023-10-13T06:23:39;99559.72;;;15.35;62.00
17311;BME280;8773;43.300;0.394;2023-10-13T06:26:06;99559.97;;;15.40;61.67
17311;BME280;8773;43.300;0.394;2023-10-13T06:28:34;99561.63;;;15.41;61.41
17311;BME280;8773;43.300;0.394;2023-10-13T06:31:05;99557.47;;;15.38;61.30
17311;BME280;8773;43.300;0.394;2023-10-13T06:33:34;99553.56;;;15.41;61.57
17311;BME280;8773;43.300;0.394;2023-10-13T06:36:02;99553.28;;;15.57;61.37
17311;BME280;8773;43.300;0.394;2023-10-13T06:38:30;99561.38;;;15.57;61.06
17311;BME280;8773;43.300;0.394;2023-10-13T06:40:57;99549.19;;;15.61;61.29
17311;BME280;8773;43.300;0.394;2023-10-13T06:43:25;99557.34;;;15.68;60.82
17311;BME280;8773;43.300;0.394;2023-10-13T06:45:54;99563.44;;;15.77;60.72
17311;BME280;8773;43.300;0.394;2023-10-13T06:48:22;99569.31;;;15.87;60.06
17311;BME280;8773;43.300;0.394;2023-10-13T06:50:51;99566.63;;;15.65;60.70
17311;BME280;8773;43.300;0.394;2023-10-13T06:53:19;99564.56;;;15.67;60.54
17311;BME280;8773;43.300;0.394;2023-10-13T06:55:46;99562.22;;;15.79;60.28
17311;BME280;8773;43.300;0.394;2023-10-13T06:58:13;99565.19;;;15.84;60.11
17311;BME280;8773;43.300;0.394;2023-10-13T07:00:41;99567.69;;;15.86;59.41
17311;BME280;8773;43.300;0.394;2023-10-13T07:03:08;99571.84;;;16.16;59.30
17311;BME280;8773;43.300;0.394;2023-10-13T07:05:36;99564.16;;;16.13;58.69
17311;BME280;8773;43.300;0.394;2023-10-13T07:08:06;99570.66;;;16.25;58.46
17311;BME280;8773;43.300;0.394;2023-10-13T07:10:34;99574.16;;;16.19;58.32
17311;BME280;8773;43.300;0.394;2023-10-13T07:13:01;99578.00;;;16.38;58.39
17311;BME280;8773;43.300;0.394;2023-10-13T07:15:29;99578.88;;;16.45;58.99
17311;BME280;8773;43.300;0.394;2023-10-13T07:17:56;99577.78;;;16.39;58.92
17311;BME280;8773;43.300;0.394;2023-10-13T07:20:24;99567.97;;;16.60;58.24
17311;BME280;8773;43.300;0.394;2023-10-13T07:22:51;99569.72;;;16.74;57.94
17311;BME280;8773;43.300;0.394;2023-10-13T07:25:20;99576.22;;;16.86;58.09
17311;BME280;8773;43.300;0.394;2023-10-13T07:27:47;99578.31;;;16.91;57.71
17311;BME280;8773;43.300;0.394;2023-10-13T07:30:14;99576.78;;;17.29;56.64
17311;BME280;8773;43.300;0.394;2023-10-13T07:32:42;99583.47;;;17.40;56.31
17311;BME280;8773;43.300;0.394;2023-10-13T07:35:15;99579.22;;;17.92;55.14
17311;BME280;8773;43.300;0.394;2023-10-13T07:37:43;99578.50;;;17.44;55.66
17311;BME280;8773;43.300;0.394;2023-10-13T07:40:10;99579.00;;;17.87;55.10
17311;BME280;8773;43.300;0.394;2023-10-13T07:42:39;99577.75;;;18.22;55.25
17311;BME280;8773;43.300;0.394;2023-10-13T07:45:07;99574.81;;;18.30;54.43
17311;BME280;8773;43.300;0.394;2023-10-13T07:47:34;99577.91;;;18.60;53.80
17311;BME280;8773;43.300;0.394;2023-10-13T07:50:02;99582.06;;;18.56;53.13
17311;BME280;8773;43.300;0.394;2023-10-13T07:52:29;99578.53;;;18.69;53.12
17311;BME280;8773;43.300;0.394;2023-10-13T07:55:00;99583.72;;;18.71;52.66
17311;BME280;8773;43.300;0.394;2023-10-13T07:57:27;99575.91;;;18.94;53.41
17311;BME280;8773;43.300;0.394;2023-10-13T07:59:56;99577.47;;;19.28;53.41
17311;BME280;8773;43.300;0.394;2023-10-13T08:02:24;99576.81;;;19.71;51.77
17311;BME280;8773;43.300;0.394;2023-10-13T08:04:51;99583.50;;;19.93;51.77
17311;BME280;8773;43.300;0.394;2023-10-13T08:07:19;99588.59;;;20.08;51.49
17311;BME280;8773;43.300;0.394;2023-10-13T08:09:47;99588.50;;;20.21;51.67
17311;BME280;8773;43.300;0.394;2023-10-13T08:12:14;99587.78;;;20.07;50.41
17311;BME280;8773;43.300;0.394;2023-10-13T08:14:41;99588.28;;;20.22;51.06
17311;BME280;8773;43.300;0.394;2023-10-13T08:17:10;99588.81;;;20.56;50.19
17311;BME280;8773;43.300;0.394;2023-10-13T08:19:38;99591.69;;;20.61;50.34
17311;BME280;8773;43.300;0.394;2023-10-13T08:22:06;99592.13;;;20.58;49.76
17311;BME280;8773;43.300;0.394;2023-10-13T08:24:33;99589.81;;;20.61;49.58
17311;BME280;8773;43.300;0.394;2023-10-13T08:27:01;99591.00;;;20.22;50.14
17311;BME280;8773;43.300;0.394;2023-10-13T08:29:46;99592.97;;;20.09;50.98
17311;BME280;8773;43.300;0.394;2023-10-13T08:32:15;99585.88;;;20.14;51.05
17311;BME280;8773;43.300;0.394;2023-10-13T08:34:43;99588.59;;;20.14;51.12
17311;BME280;8773;43.300;0.394;2023-10-13T08:37:10;99586.13;;;20.06;51.02
17311;BME280;8773;43.300;0.394;2023-10-13T08:39:38;99581.41;;;19.95;51.91
17311;BME280;8773;43.300;0.394;2023-10-13T08:42:06;99588.66;;;20.01;51.79
17311;BME280;8773;43.300;0.394;2023-10-13T08:44:33;99589.88;;;20.05;51.37
17311;BME280;8773;43.300;0.394;2023-10-13T08:47:05;99589.63;;;19.82;51.81
17311;BME280;8773;43.300;0.394;2023-10-13T08:49:35;99586.00;;;19.94;52.09
17311;BME280;8773;43.300;0.394;2023-10-13T08:52:03;99587.16;;;20.05;52.11
17311;BME280;8773;43.300;0.394;2023-10-13T08:54:32;99601.63;;;20.24;51.56
17311;BME280;8773;43.300;0.394;2023-10-13T08:57:00;99600.50;;;20.31;50.64
17311;BME280;8773;43.300;0.394;2023-10-13T08:59:28;99589.94;;;20.23;51.24
17311;BME280;8773;43.300;0.394;2023-10-13T09:01:55;99606.66;;;20.45;50.75
17311;BME280;8773;43.300;0.394;2023-10-13T09:04:23;99604.03;;;20.57;50.71
17311;BME280;8773;43.300;0.394;2023-10-13T09:06:53;99610.81;;;20.66;51.23
17311;BME280;8773;43.300;0.394;2023-10-13T09:09:21;99600.41;;;20.81;50.13
17311;BME280;8773;43.300;0.394;2023-10-13T09:11:48;99594.13;;;21.06;51.21
17311;BME280;8773;43.300;0.394;2023-10-13T09:14:17;99591.66;;;21.34;49.96
17311;BME280;8773;43.300;0.394;2023-10-13T09:16:44;99589.38;;;21.61;49.53
17311;BME280;8773;43.300;0.394;2023-10-13T09:19:12;99591.88;;;21.92;49.17
17311;BME280;8773;43.300;0.394;2023-10-13T09:21:40;99596.31;;;22.28;48.31
17311;BME280;8773;43.300;0.394;2023-10-13T09:24:10;99595.84;;;22.31;48.48
17311;BME280;8773;43.300;0.394;2023-10-13T09:26:38;99600.09;;;22.39;47.88
17311;BME280;8773;43.300;0.394;2023-10-13T09:29:14;99599.84;;;22.41;48.17
17311;BME280;8773;43.300;0.394;2023-10-13T09:31:41;99604.72;;;22.39;47.91
17311;BME280;8773;43.300;0.394;2023-10-13T09:34:09;99595.00;;;22.31;47.33
17311;BME280;8773;43.300;0.394;2023-10-13T09:36:36;99606.78;;;22.13;48.21
17311;BME280;8773;43.300;0.394;2023-10-13T09:39:04;99605.00;;;22.07;48.40
17311;BME280;8773;43.300;0.394;2023-10-13T09:41:36;99612.16;;;22.31;50.00
17311;BME280;8773;43.300;0.394;2023-10-13T09:44:04;99608.16;;;22.46;49.01
17311;BME280;8773;43.300;0.394;2023-10-13T09:46:33;99600.94;;;22.75;48.02
17311;BME280;8773;43.300;0.394;2023-10-13T09:49:11;99603.59;;;22.98;47.06
17311;BME280;8773;43.300;0.394;2023-10-13T09:51:39;99609.66;;;23.12;46.71
17311;BME280;8773;43.300;0.394;2023-10-13T09:54:10;99612.75;;;23.32;46.68
17311;BME280;8773;43.300;0.394;2023-10-13T09:56:48;99609.66;;;23.40;46.90
17311;BME280;8773;43.300;0.394;2023-10-13T09:59:20;99610.03;;;23.32;45.84
17311;BME280;8773;43.300;0.394;2023-10-13T10:01:48;99610.03;;;23.32;46.92
17311;BME280;8773;43.300;0.394;2023-10-13T10:04:17;99615.31;;;23.50;47.43
17311;BME280;8773;43.300;0.394;2023-10-13T10:06:52;99615.84;;;23.64;46.09
17311;BME280;8773;43.300;0.394;2023-10-13T10:09:19;99612.28;;;23.63;46.30
17311;BME280;8773;43.300;0.394;2023-10-13T10:12:05;99615.66;;;23.82;45.92
17311;BME280;8773;43.300;0.394;2023-10-13T10:17:29;99616.00;;;24.19;44.48
17311;BME280;8773;43.300;0.394;2023-10-13T10:19:57;99628.50;;;24.15;45.56
17311;BME280;8773;43.300;0.394;2023-10-13T10:22:26;99623.28;;;24.31;45.60
17311;BME280;8773;43.300;0.394;2023-10-13T10:24:56;99621.41;;;24.48;45.08
17311;BME280;8773;43.300;0.394;2023-10-13T10:27:26;99632.47;;;24.58;45.09
17311;BME280;8773;43.300;0.394;2023-10-13T10:29:54;99627.03;;;24.41;44.98
17311;BME280;8773;43.300;0.394;2023-10-13T10:32:32;99632.56;;;24.29;44.81
17311;BME280;8773;43.300;0.394;2023-10-13T10:35:04;99631.63;;;24.24;44.88
17311;BME280;8773;43.300;0.394;2023-10-13T10:37:33;99629.66;;;24.53;44.10
17311;BME280;8773;43.300;0.394;2023-10-13T10:40:01;99638.75;;;24.58;43.38
17311;BME280;8773;43.300;0.394;2023-10-13T10:42:30;99635.72;;;24.93;43.61
17311;BME280;8773;43.300;0.394;2023-10-13T10:44:57;99632.78;;;25.17;42.82
17311;BME280;8773;43.300;0.394;2023-10-13T10:47:25;99632.00;;;25.43;42.53
17311;BME280;8773;43.300;0.394;2023-10-13T10:49:52;99632.63;;;25.72;40.35
17311;BME280;8773;43.300;0.394;2023-10-13T10:52:20;99630.22;;;25.76;39.70
17311;BME280;8773;43.300;0.394;2023-10-13T10:54:58;99636.25;;;25.78;40.11
17311;BME280;8773;43.300;0.394;2023-10-13T10:57:26;99640.13;;;25.82;39.27
17311;BME280;8773;43.300;0.394;2023-10-13T10:59:55;99628.31;;;25.76;39.26
17311;BME280;8773;43.300;0.394;2023-10-13T11:02:30;99643.75;;;25.92;39.29
17311;BME280;8773;43.300;0.394;2023-10-13T11:04:57;99630.28;;;25.86;39.64
17311;BME280;8773;43.300;0.394;2023-10-13T11:07:25;99633.34;;;25.89;39.94
17311;BME280;8773;43.300;0.394;2023-10-13T11:09:53;99639.28;;;26.08;39.73
17311;BME280;8773;43.300;0.394;2023-10-13T11:12:20;99632.75;;;26.14;38.99
17311;BME280;8773;43.300;0.394;2023-10-13T11:14:48;99630.63;;;26.21;37.56
17311;BME280;8773;43.300;0.394;2023-10-13T11:17:21;99622.56;;;26.37;37.40
17311;BME280;8773;43.300;0.394;2023-10-13T11:19:48;99621.88;;;26.56;37.21
17311;BME280;8773;43.300;0.394;2023-10-13T11:22:17;99611.34;;;26.80;36.21
17311;BME280;8773;43.300;0.394;2023-10-13T11:24:44;99616.44;;;27.04;35.09
17311;BME280;8773;43.300;0.394;2023-10-13T11:27:15;99609.44;;;27.38;35.46
17311;BME280;8773;43.300;0.394;2023-10-13T11:29:42;99603.97;;;27.43;35.23
17311;BME280;8773;43.300;0.394;2023-10-13T11:32:09;99604.84;;;27.64;34.75
17311;BME280;8773;43.300;0.394;2023-10-13T11:34:38;99606.13;;;27.36;34.40
17311;BME280;8773;43.300;0.394;2023-10-13T11:37:06;99605.91;;;27.48;34.23
17311;BME280;8773;43.300;0.394;2023-10-13T11:39:33;99609.97;;;27.35;34.07
17311;BME280;8773;43.300;0.394;2023-10-13T11:42:01;99613.34;;;27.58;35.22
17311;BME280;8773;43.300;0.394;2023-10-13T11:44:28;99608.72;;;27.73;35.47
17311;BME280;8773;43.300;0.394;2023-10-13T11:46:56;99597.50;;;27.90;34.36
17311;BME280;8773;43.300;0.394;2023-10-13T11:49:23;99601.06;;;27.91;34.61
17311;BME280;8773;43.300;0.394;2023-10-13T11:51:52;99598.84;;;28.08;34.68
17311;BME280;8773;43.300;0.394;2023-10-13T11:54:22;99596.97;;;28.24;34.82
17311;BME280;8773;43.300;0.394;2023-10-13T11:56:50;99596.44;;;28.16;34.44
17311;BME280;8773;43.300;0.394;2023-10-13T11:59:18;99584.63;;;28.26;33.41
17311;BME280;8773;43.300;0.394;2023-10-13T12:01:46;99590.66;;;28.13;33.36
17311;BME280;8773;43.300;0.394;2023-10-13T12:04:14;99582.41;;;28.38;33.51
17311;BME280;8773;43.300;0.394;2023-10-13T12:06:44;99579.91;;;28.47;32.40
17311;BME280;8773;43.300;0.394;2023-10-13T12:09:13;99578.22;;;28.61;32.88
17311;BME280;8773;43.300;0.394;2023-10-13T12:11:41;99584.00;;;28.60;32.80
17311;BME280;8773;43.300;0.394;2023-10-13T12:14:08;99582.69;;;28.16;32.50
17311;BME280;8773;43.300;0.394;2023-10-13T12:16:36;99580.22;;;28.20;30.78
17311;BME280;8773;43.300;0.394;2023-10-13T12:19:03;99565.41;;;28.21;29.91
17311;BME280;8773;43.300;0.394;2023-10-13T12:21:31;99565.66;;;28.30;29.90
17311;BME280;8773;43.300;0.394;2023-10-13T12:23:58;99568.63;;;28.53;29.66
17311;BME280;8773;43.300;0.394;2023-10-13T12:26:27;99566.97;;;28.58;28.38
17311;BME280;8773;43.300;0.394;2023-10-13T12:28:54;99570.53;;;28.73;28.53
17311;BME280;8773;43.300;0.394;2023-10-13T12:31:22;99565.03;;;28.78;28.07
17311;BME280;8773;43.300;0.394;2023-10-13T12:33:49;99558.56;;;29.13;28.19
17311;BME280;8773;43.300;0.394;2023-10-13T12:36:17;99555.50;;;29.25;27.97
17311;BME280;8773;43.300;0.394;2023-10-13T12:38:44;99566.41;;;29.40;27.99
17311;BME280;8773;43.300;0.394;2023-10-13T12:41:11;99565.31;;;29.36;27.46
17311;BME280;8773;43.300;0.394;2023-10-13T12:43:56;99559.78;;;29.46;27.70
17311;BME280;8773;43.300;0.394;2023-10-13T12:46:23;99551.59;;;29.31;27.24
17311;BME280;8773;43.300;0.394;2023-10-13T12:48:51;99554.91;;;29.33;27.08
17311;BME280;8773;43.300;0.394;2023-10-13T12:51:19;99552.81;;;29.59;27.12
17311;BME280;8773;43.300;0.394;2023-10-13T12:53:47;99550.75;;;29.75;27.15
17311;BME280;8773;43.300;0.394;2023-10-13T12:56:14;99547.69;;;29.87;26.62
17311;BME280;8773;43.300;0.394;2023-10-13T12:58:42;99544.47;;;30.08;26.72
17311;BME280;8773;43.300;0.394;2023-10-13T13:01:11;99545.97;;;29.96;26.16
17311;BME280;8773;43.300;0.394;2023-10-13T13:03:38;99536.75;;;30.10;25.84
17311;BME280;8773;43.300;0.394;2023-10-13T13:13:27;99154.50;;;27.47;nan
17311;BME280;8773;43.300;0.394;2023-10-13T13:15:54;99552.97;;;29.73;nan
17311;BME280;8773;43.300;0.394;2023-10-13T13:18:23;99550.34;;;29.58;nan
17311;BME280;8773;43.300;0.394;2023-10-13T13:20:51;99542.44;;;29.46;nan
17311;BME280;8773;43.300;0.394;2023-10-13T13:23:19;99546.25;;;29.55;nan
17311;BME280;8773;43.300;0.394;2023-10-13T13:25:46;99547.53;;;29.29;nan
17311;BME280;8773;43.300;0.394;2023-10-13T13:28:14;99537.38;;;29.24;nan